65.7°F
Current conditions from King Hill
Updated every 5 minutes
 
  Tuesday September 2, 2014

Station Historical Data
Daily Summary for February 20, 2011 Units:  Both    English   Metric
« Previous Day
Next Day »
Daily Weekly Monthly Yearly Custom
  High: Low: Average:
Temperature: 19.2 °F /  -7.1 °C 6.7 °F /  -14.1 °C 11.7 °F /  -11.3 °C
Dew Point: 5.7 °F /  -14.6 °C -1.9 °F /  -18.8 °C 1.7 °F /  -16.8 °C
Humidity: 78% 52% 64%
Wind Speed: 10.0mph /  16.1km/h - 4.7mph /  7.6km/h
Wind Gust: 24.0mph /  38.6km/h - -
Wind- - West
Pressure: 30.25 in /  1024.3 hPa 30.04 in /  1017.2 hPa -
Precipitation: 0.00 in /  0 mm    
Historical Graphs
 
 
Tabular Data for February 20, 2011
Time Temperature Dew Point Pressure Wind Wind Speed Wind Gust Humidity Daily Rainfall
00:04 10.1 °F /  -12.2 °C 0.3 °F /  -17.6 °C 30.08in /  1018.5hPa NW 10.0mph /  16.1km/h 22.0mph /  35.4km/h 64% 0.00in /  0mm
00:09 10.2 °F /  -12.1 °C 0.8 °F /  -17.3 °C 30.08in /  1018.5hPa NNW 6.0mph /  9.7km/h 21.0mph /  33.8km/h 65% 0.00in /  0mm
00:14 10.2 °F /  -12.1 °C 0.8 °F /  -17.3 °C 30.09in /  1018.8hPa NNW 6.0mph /  9.7km/h 19.0mph /  30.6km/h 65% 0.00in /  0mm
00:19 10.2 °F /  -12.1 °C 0.4 °F /  -17.6 °C 30.09in /  1018.8hPa NW 9.0mph /  14.5km/h 19.0mph /  30.6km/h 64% 0.00in /  0mm
00:24 10.2 °F /  -12.1 °C 0.8 °F /  -17.3 °C 30.09in /  1018.8hPa NNW 6.0mph /  9.7km/h 19.0mph /  30.6km/h 65% 0.00in /  0mm
00:29 10.1 °F /  -12.2 °C 0.7 °F /  -17.4 °C 30.09in /  1018.8hPa North 9.0mph /  14.5km/h 15.0mph /  24.1km/h 65% 0.00in /  0mm
00:34 10.0 °F /  -12.2 °C 0.6 °F /  -17.4 °C 30.10in /  1019.2hPa NNW 7.0mph /  11.3km/h 19.0mph /  30.6km/h 65% 0.00in /  0mm
00:39 10.0 °F /  -12.2 °C 0.6 °F /  -17.4 °C 30.10in /  1019.2hPa NNW 8.0mph /  12.9km/h 24.0mph /  38.6km/h 65% 0.00in /  0mm
00:44 10.0 °F /  -12.2 °C 0.2 °F /  -17.7 °C 30.09in /  1018.8hPa NNW 8.0mph /  12.9km/h 24.0mph /  38.6km/h 64% 0.00in /  0mm
00:49 10.0 °F /  -12.2 °C 0.6 °F /  -17.4 °C 30.10in /  1019.2hPa NNW 7.0mph /  11.3km/h 19.0mph /  30.6km/h 65% 0.00in /  0mm
00:54 9.9 °F /  -12.3 °C 0.5 °F /  -17.5 °C 30.10in /  1019.2hPa NW 7.0mph /  11.3km/h 19.0mph /  30.6km/h 65% 0.00in /  0mm
00:59 9.9 °F /  -12.3 °C 0.2 °F /  -17.7 °C 30.10in /  1019.2hPa NNW 6.0mph /  9.7km/h 23.0mph /  37km/h 64% 0.00in /  0mm
01:04 9.9 °F /  -12.3 °C 0.2 °F /  -17.7 °C 30.10in /  1019.2hPa NW 10.0mph /  16.1km/h 23.0mph /  37km/h 64% 0.00in /  0mm
01:10 9.9 °F /  -12.3 °C 0.2 °F /  -17.7 °C 30.10in /  1019.2hPa NW 8.0mph /  12.9km/h 21.0mph /  33.8km/h 64% 0.00in /  0mm
01:15 9.9 °F /  -12.3 °C 0.2 °F /  -17.7 °C 30.11in /  1019.5hPa NNW 7.0mph /  11.3km/h 19.0mph /  30.6km/h 64% 0.00in /  0mm
01:20 9.8 °F /  -12.3 °C 0.1 °F /  -17.7 °C 30.11in /  1019.5hPa NW 7.0mph /  11.3km/h 19.0mph /  30.6km/h 64% 0.00in /  0mm
01:25 9.8 °F /  -12.3 °C 0.4 °F /  -17.6 °C 30.11in /  1019.5hPa NNW 6.0mph /  9.7km/h 21.0mph /  33.8km/h 65% 0.00in /  0mm
01:30 9.8 °F /  -12.3 °C 0.1 °F /  -17.7 °C 30.11in /  1019.5hPa NNW 7.0mph /  11.3km/h 23.0mph /  37km/h 64% 0.00in /  0mm
01:35 9.8 °F /  -12.3 °C 0.1 °F /  -17.7 °C 30.11in /  1019.5hPa NW 7.0mph /  11.3km/h 23.0mph /  37km/h 64% 0.00in /  0mm
01:45 9.8 °F /  -12.3 °C 0.1 °F /  -17.7 °C 30.11in /  1019.5hPa NNW 10.0mph /  16.1km/h 19.0mph /  30.6km/h 64% 0.00in /  0mm
01:50 9.8 °F /  -12.3 °C 0.4 °F /  -17.6 °C 30.11in /  1019.5hPa NNW 9.0mph /  14.5km/h 19.0mph /  30.6km/h 65% 0.00in /  0mm
01:55 9.8 °F /  -12.3 °C 0.4 °F /  -17.6 °C 30.12in /  1019.9hPa NW 6.0mph /  9.7km/h 17.0mph /  27.4km/h 65% 0.00in /  0mm
02:00 9.8 °F /  -12.3 °C 0.4 °F /  -17.6 °C 30.12in /  1019.9hPa NW 5.0mph /  8km/h 17.0mph /  27.4km/h 65% 0.00in /  0mm
02:05 9.8 °F /  -12.3 °C 0.4 °F /  -17.6 °C 30.12in /  1019.9hPa NNW 8.0mph /  12.9km/h 18.0mph /  29km/h 65% 0.00in /  0mm
02:10 9.8 °F /  -12.3 °C 0.4 °F /  -17.6 °C 30.12in /  1019.9hPa NW 6.0mph /  9.7km/h 18.0mph /  29km/h 65% 0.00in /  0mm
02:15 9.7 °F /  -12.4 °C 0.6 °F /  -17.4 °C 30.12in /  1019.9hPa NW 3.0mph /  4.8km/h 15.0mph /  24.1km/h 66% 0.00in /  0mm
02:20 9.8 °F /  -12.3 °C 0.7 °F /  -17.4 °C 30.12in /  1019.9hPa NNW 4.0mph /  6.4km/h 14.0mph /  22.5km/h 66% 0.00in /  0mm
02:25 9.8 °F /  -12.3 °C 0.7 °F /  -17.4 °C 30.13in /  1020.2hPa NW 6.0mph /  9.7km/h 14.0mph /  22.5km/h 66% 0.00in /  0mm
02:30 9.8 °F /  -12.3 °C 0.7 °F /  -17.4 °C 30.13in /  1020.2hPa NW 4.0mph /  6.4km/h 11.0mph /  17.7km/h 66% 0.00in /  0mm
02:35 9.8 °F /  -12.3 °C 1.0 °F /  -17.2 °C 30.13in /  1020.2hPa NW 6.0mph /  9.7km/h 13.0mph /  20.9km/h 67% 0.00in /  0mm
02:40 9.8 °F /  -12.3 °C 1.0 °F /  -17.2 °C 30.13in /  1020.2hPa NNW 6.0mph /  9.7km/h 13.0mph /  20.9km/h 67% 0.00in /  0mm
02:45 9.9 °F /  -12.3 °C 1.1 °F /  -17.2 °C 30.13in /  1020.2hPa NNW 5.0mph /  8km/h 13.0mph /  20.9km/h 67% 0.00in /  0mm
02:50 9.9 °F /  -12.3 °C 1.1 °F /  -17.2 °C 30.13in /  1020.2hPa NNW 7.0mph /  11.3km/h 17.0mph /  27.4km/h 67% 0.00in /  0mm
02:55 9.8 °F /  -12.3 °C 1.0 °F /  -17.2 °C 30.13in /  1020.2hPa NNW 7.0mph /  11.3km/h 17.0mph /  27.4km/h 67% 0.00in /  0mm
03:00 9.8 °F /  -12.3 °C 1.4 °F /  -17 °C 30.13in /  1020.2hPa NNW 3.0mph /  4.8km/h 17.0mph /  27.4km/h 68% 0.00in /  0mm
03:05 9.8 °F /  -12.3 °C 1.4 °F /  -17 °C 30.14in /  1020.5hPa NNW 6.0mph /  9.7km/h 13.0mph /  20.9km/h 68% 0.00in /  0mm
03:10 9.7 °F /  -12.4 °C 1.3 °F /  -17.1 °C 30.14in /  1020.5hPa NW 7.0mph /  11.3km/h 17.0mph /  27.4km/h 68% 0.00in /  0mm
03:15 9.6 °F /  -12.4 °C 1.5 °F /  -16.9 °C 30.14in /  1020.5hPa NW 10.0mph /  16.1km/h 21.0mph /  33.8km/h 69% 0.00in /  0mm
03:20 9.5 °F /  -12.5 °C 1.7 °F /  -16.8 °C 30.14in /  1020.5hPa NNW 7.0mph /  11.3km/h 21.0mph /  33.8km/h 70% 0.00in /  0mm
03:25 9.5 °F /  -12.5 °C 1.7 °F /  -16.8 °C 30.14in /  1020.5hPa NNW 7.0mph /  11.3km/h 17.0mph /  27.4km/h 70% 0.00in /  0mm
03:30 9.4 °F /  -12.6 °C 1.6 °F /  -16.9 °C 30.15in /  1020.9hPa NNW 7.0mph /  11.3km/h 17.0mph /  27.4km/h 70% 0.00in /  0mm
03:35 9.4 °F /  -12.6 °C 1.6 °F /  -16.9 °C 30.15in /  1020.9hPa NNW 7.0mph /  11.3km/h 17.0mph /  27.4km/h 70% 0.00in /  0mm
03:40 9.5 °F /  -12.5 °C 1.7 °F /  -16.8 °C 30.15in /  1020.9hPa NW 5.0mph /  8km/h 17.0mph /  27.4km/h 70% 0.00in /  0mm
03:45 9.4 °F /  -12.6 °C 1.9 °F /  -16.7 °C 30.15in /  1020.9hPa NNW 5.0mph /  8km/h 15.0mph /  24.1km/h 71% 0.00in /  0mm
03:50 9.4 °F /  -12.6 °C 1.9 °F /  -16.7 °C 30.16in /  1021.2hPa NNW 4.0mph /  6.4km/h 13.0mph /  20.9km/h 71% 0.00in /  0mm
03:55 9.4 °F /  -12.6 °C 1.9 °F /  -16.7 °C 30.16in /  1021.2hPa NW 3.0mph /  4.8km/h 14.0mph /  22.5km/h 71% 0.00in /  0mm
04:00 9.2 °F /  -12.7 °C 1.7 °F /  -16.8 °C 30.17in /  1021.6hPa NW 7.0mph /  11.3km/h 14.0mph /  22.5km/h 71% 0.00in /  0mm
04:05 9.1 °F /  -12.7 °C 1.9 °F /  -16.7 °C 30.17in /  1021.6hPa NW 8.0mph /  12.9km/h 16.0mph /  25.7km/h 72% 0.00in /  0mm
04:10 9.1 °F /  -12.7 °C 1.6 °F /  -16.9 °C 30.17in /  1021.6hPa NNW 5.0mph /  8km/h 16.0mph /  25.7km/h 71% 0.00in /  0mm
04:15 9.1 °F /  -12.7 °C 1.6 °F /  -16.9 °C 30.17in /  1021.6hPa NNW 7.0mph /  11.3km/h 16.0mph /  25.7km/h 71% 0.00in /  0mm
04:20 9.1 °F /  -12.7 °C 1.6 °F /  -16.9 °C 30.17in /  1021.6hPa NNW 8.0mph /  12.9km/h 17.0mph /  27.4km/h 71% 0.00in /  0mm
04:25 9.0 °F /  -12.8 °C 1.5 °F /  -16.9 °C 30.17in /  1021.6hPa NW 6.0mph /  9.7km/h 17.0mph /  27.4km/h 71% 0.00in /  0mm
04:30 9.0 °F /  -12.8 °C 1.8 °F /  -16.8 °C 30.17in /  1021.6hPa NW 2.0mph /  3.2km/h 13.0mph /  20.9km/h 72% 0.00in /  0mm
04:35 9.0 °F /  -12.8 °C 1.8 °F /  -16.8 °C 30.18in /  1021.9hPa NNW 5.0mph /  8km/h 9.0mph /  14.5km/h 72% 0.00in /  0mm
04:40 8.9 °F /  -12.8 °C 1.7 °F /  -16.8 °C 30.18in /  1021.9hPa NNW 3.0mph /  4.8km/h 9.0mph /  14.5km/h 72% 0.00in /  0mm
04:45 8.7 °F /  -12.9 °C 1.2 °F /  -17.1 °C 30.18in /  1021.9hPa NNW 10.0mph /  16.1km/h 16.0mph /  25.7km/h 71% 0.00in /  0mm
04:50 8.6 °F /  -13 °C 1.1 °F /  -17.2 °C 30.18in /  1021.9hPa NNW 5.0mph /  8km/h 20.0mph /  32.2km/h 71% 0.00in /  0mm
04:55 8.5 °F /  -13.1 °C 0.7 °F /  -17.4 °C 30.19in /  1022.2hPa NNW 4.0mph /  6.4km/h 20.0mph /  32.2km/h 70% 0.00in /  0mm
05:00 8.5 °F /  -13.1 °C 0.7 °F /  -17.4 °C 30.19in /  1022.2hPa NW 6.0mph /  9.7km/h 17.0mph /  27.4km/h 70% 0.00in /  0mm
05:05 8.5 °F /  -13.1 °C 0.7 °F /  -17.4 °C 30.19in /  1022.2hPa NNW 5.0mph /  8km/h 17.0mph /  27.4km/h 70% 0.00in /  0mm
05:10 8.6 °F /  -13 °C 0.8 °F /  -17.3 °C 30.19in /  1022.2hPa NNW 10.0mph /  16.1km/h 20.0mph /  32.2km/h 70% 0.00in /  0mm
05:15 8.6 °F /  -13 °C 0.8 °F /  -17.3 °C 30.19in /  1022.2hPa NW 5.0mph /  8km/h 20.0mph /  32.2km/h 70% 0.00in /  0mm
05:20 8.6 °F /  -13 °C 1.1 °F /  -17.2 °C 30.19in /  1022.2hPa NNW 5.0mph /  8km/h 12.0mph /  19.3km/h 71% 0.00in /  0mm
05:25 8.5 °F /  -13.1 °C 0.7 °F /  -17.4 °C 30.19in /  1022.2hPa NNW 5.0mph /  8km/h 17.0mph /  27.4km/h 70% 0.00in /  0mm
05:30 8.6 °F /  -13 °C 0.5 °F /  -17.5 °C 30.19in /  1022.2hPa NNW 7.0mph /  11.3km/h 17.0mph /  27.4km/h 69% 0.00in /  0mm
05:35 8.5 °F /  -13.1 °C 0.4 °F /  -17.6 °C 30.20in /  1022.6hPa NW 7.0mph /  11.3km/h 16.0mph /  25.7km/h 69% 0.00in /  0mm
05:40 8.5 °F /  -13.1 °C 0.4 °F /  -17.6 °C 30.20in /  1022.6hPa NNW 8.0mph /  12.9km/h 16.0mph /  25.7km/h 69% 0.00in /  0mm
05:45 8.5 °F /  -13.1 °C 0.4 °F /  -17.6 °C 30.20in /  1022.6hPa NNW 3.0mph /  4.8km/h 14.0mph /  22.5km/h 69% 0.00in /  0mm
05:50 8.5 °F /  -13.1 °C 0.4 °F /  -17.6 °C 30.20in /  1022.6hPa NW 4.0mph /  6.4km/h 14.0mph /  22.5km/h 69% 0.00in /  0mm
05:55 8.4 °F /  -13.1 °C 0.0 °F /  -17.8 °C 30.20in /  1022.6hPa NNW 6.0mph /  9.7km/h 14.0mph /  22.5km/h 68% 0.00in /  0mm
06:00 8.3 °F /  -13.2 °C 0.2 °F /  -17.7 °C 30.20in /  1022.6hPa NW 8.0mph /  12.9km/h 20.0mph /  32.2km/h 69% 0.00in /  0mm
06:05 8.3 °F /  -13.2 °C 0.2 °F /  -17.7 °C 30.20in /  1022.6hPa NW 2.0mph /  3.2km/h 20.0mph /  32.2km/h 69% 0.00in /  0mm
06:10 8.3 °F /  -13.2 °C 0.2 °F /  -17.7 °C 30.20in /  1022.6hPa NNW 7.0mph /  11.3km/h 13.0mph /  20.9km/h 69% 0.00in /  0mm
06:15 8.2 °F /  -13.2 °C 0.4 °F /  -17.6 °C 30.21in /  1022.9hPa NW 8.0mph /  12.9km/h 14.0mph /  22.5km/h 70% 0.00in /  0mm
06:19 8.1 °F /  -13.3 °C 0.3 °F /  -17.6 °C 30.21in /  1022.9hPa NW 5.0mph /  8km/h 18.0mph /  29km/h 70% 0.00in /  0mm
06:25 8.0 °F /  -13.3 °C 0.2 °F /  -17.7 °C 30.22in /  1023.2hPa NNW 8.0mph /  12.9km/h 18.0mph /  29km/h 70% 0.00in /  0mm
06:30 8.0 °F /  -13.3 °C -0.1 °F /  -17.8 °C 30.22in /  1023.2hPa NW 7.0mph /  11.3km/h 15.0mph /  24.1km/h 69% 0.00in /  0mm
06:35 7.9 °F /  -13.4 °C -0.2 °F /  -17.9 °C 30.22in /  1023.2hPa NW 5.0mph /  8km/h 14.0mph /  22.5km/h 69% 0.00in /  0mm
06:40 7.9 °F /  -13.4 °C -0.2 °F /  -17.9 °C 30.22in /  1023.2hPa NW 9.0mph /  14.5km/h 15.0mph /  24.1km/h 69% 0.00in /  0mm
06:45 7.7 °F /  -13.5 °C -0.4 °F /  -18 °C 30.22in /  1023.2hPa NW 6.0mph /  9.7km/h 19.0mph /  30.6km/h 69% 0.00in /  0mm
06:50 7.7 °F /  -13.5 °C -0.7 °F /  -18.2 °C 30.23in /  1023.6hPa NW 7.0mph /  11.3km/h 19.0mph /  30.6km/h 68% 0.00in /  0mm
06:55 7.6 °F /  -13.6 °C -0.8 °F /  -18.2 °C 30.23in /  1023.6hPa NW 7.0mph /  11.3km/h 15.0mph /  24.1km/h 68% 0.00in /  0mm
07:00 7.5 °F /  -13.6 °C -0.9 °F /  -18.3 °C 30.23in /  1023.6hPa NNW 2.0mph /  3.2km/h 16.0mph /  25.7km/h 68% 0.00in /  0mm
07:05 7.5 °F /  -13.6 °C -0.9 °F /  -18.3 °C 30.23in /  1023.6hPa NNW 3.0mph /  4.8km/h 16.0mph /  25.7km/h 68% 0.00in /  0mm
07:10 7.4 °F /  -13.7 °C -1.0 °F /  -18.3 °C 30.23in /  1023.6hPa NW 3.0mph /  4.8km/h 14.0mph /  22.5km/h 68% 0.00in /  0mm
07:15 7.4 °F /  -13.7 °C -1.0 °F /  -18.3 °C 30.24in /  1023.9hPa NW 6.0mph /  9.7km/h 14.0mph /  22.5km/h 68% 0.00in /  0mm
07:20 7.4 °F /  -13.7 °C -1.0 °F /  -18.3 °C 30.24in /  1023.9hPa NNW 6.0mph /  9.7km/h 13.0mph /  20.9km/h 68% 0.00in /  0mm
07:25 7.3 °F /  -13.7 °C -1.4 °F /  -18.6 °C 30.24in /  1023.9hPa NNW 4.0mph /  6.4km/h 11.0mph /  17.7km/h 67% 0.00in /  0mm
07:30 7.2 °F /  -13.8 °C -1.5 °F /  -18.6 °C 30.24in /  1023.9hPa NW 6.0mph /  9.7km/h 19.0mph /  30.6km/h 67% 0.00in /  0mm
07:35 7.1 °F /  -13.8 °C -1.6 °F /  -18.7 °C 30.25in /  1024.3hPa NNW 6.0mph /  9.7km/h 19.0mph /  30.6km/h 67% 0.00in /  0mm
07:40 6.9 °F /  -13.9 °C -1.7 °F /  -18.7 °C 30.25in /  1024.3hPa NW 8.0mph /  12.9km/h 18.0mph /  29km/h 67% 0.00in /  0mm
07:45 6.7 °F /  -14.1 °C -1.9 °F /  -18.8 °C 30.25in /  1024.3hPa NW 4.0mph /  6.4km/h 18.0mph /  29km/h 67% 0.00in /  0mm
07:50 6.7 °F /  -14.1 °C -1.9 °F /  -18.8 °C 30.25in /  1024.3hPa NNW 7.0mph /  11.3km/h 18.0mph /  29km/h 67% 0.00in /  0mm
07:55 6.8 °F /  -14 °C -1.8 °F /  -18.8 °C 30.25in /  1024.3hPa NNW 5.0mph /  8km/h 18.0mph /  29km/h 67% 0.00in /  0mm
08:00 6.9 °F /  -13.9 °C -1.7 °F /  -18.7 °C 30.25in /  1024.3hPa NNW 9.0mph /  14.5km/h 18.0mph /  29km/h 67% 0.00in /  0mm
08:05 7.0 °F /  -13.9 °C -1.6 °F /  -18.7 °C 30.25in /  1024.3hPa NNW 4.0mph /  6.4km/h 16.0mph /  25.7km/h 67% 0.00in /  0mm
08:10 7.0 °F /  -13.9 °C -1.3 °F /  -18.5 °C 30.25in /  1024.3hPa NNW 4.0mph /  6.4km/h 16.0mph /  25.7km/h 68% 0.00in /  0mm
08:15 7.1 °F /  -13.8 °C -1.2 °F /  -18.4 °C 30.25in /  1024.3hPa NNW 2.0mph /  3.2km/h 11.0mph /  17.7km/h 68% 0.00in /  0mm
08:20 7.1 °F /  -13.8 °C -1.6 °F /  -18.7 °C 30.25in /  1024.3hPa NW 8.0mph /  12.9km/h 15.0mph /  24.1km/h 67% 0.00in /  0mm
08:25 6.9 °F /  -13.9 °C -1.4 °F /  -18.6 °C 30.25in /  1024.3hPa NNW 6.0mph /  9.7km/h 15.0mph /  24.1km/h 68% 0.00in /  0mm
08:30 6.8 °F /  -14 °C -1.5 °F /  -18.6 °C 30.25in /  1024.3hPa NW 8.0mph /  12.9km/h 15.0mph /  24.1km/h 68% 0.00in /  0mm
08:40 7.0 °F /  -13.9 °C -1.6 °F /  -18.7 °C 30.25in /  1024.3hPa NNW 5.0mph /  8km/h 15.0mph /  24.1km/h 67% 0.00in /  0mm
08:45 7.0 °F /  -13.9 °C -1.6 °F /  -18.7 °C 30.25in /  1024.3hPa NNW 8.0mph /  12.9km/h 15.0mph /  24.1km/h 67% 0.00in /  0mm
08:50 7.1 °F /  -13.8 °C -1.6 °F /  -18.7 °C 30.25in /  1024.3hPa NNW 8.0mph /  12.9km/h 15.0mph /  24.1km/h 67% 0.00in /  0mm
08:55 7.3 °F /  -13.7 °C -1.7 °F /  -18.7 °C 30.25in /  1024.3hPa NNW 4.0mph /  6.4km/h 15.0mph /  24.1km/h 66% 0.00in /  0mm
09:00 7.6 °F /  -13.6 °C -1.4 °F /  -18.6 °C 30.25in /  1024.3hPa NNW 4.0mph /  6.4km/h 15.0mph /  24.1km/h 66% 0.00in /  0mm
09:05 7.7 °F /  -13.5 °C -1.6 °F /  -18.7 °C 30.24in /  1023.9hPa NNW 4.0mph /  6.4km/h 13.0mph /  20.9km/h 65% 0.00in /  0mm
09:10 7.5 °F /  -13.6 °C -1.8 °F /  -18.8 °C 30.23in /  1023.6hPa NW 6.0mph /  9.7km/h 14.0mph /  22.5km/h 65% 0.00in /  0mm
09:14 7.6 °F /  -13.6 °C -1.4 °F /  -18.6 °C 30.23in /  1023.6hPa NNW 3.0mph /  4.8km/h 14.0mph /  22.5km/h 66% 0.00in /  0mm
09:20 7.7 °F /  -13.5 °C -1.6 °F /  -18.7 °C 30.23in /  1023.6hPa NW 5.0mph /  8km/h 12.0mph /  19.3km/h 65% 0.00in /  0mm
09:25 7.8 °F /  -13.4 °C -1.5 °F /  -18.6 °C 30.23in /  1023.6hPa NW 7.0mph /  11.3km/h 13.0mph /  20.9km/h 65% 0.00in /  0mm
09:30 7.7 °F /  -13.5 °C -1.6 °F /  -18.7 °C 30.23in /  1023.6hPa NW 3.0mph /  4.8km/h 14.0mph /  22.5km/h 65% 0.00in /  0mm
09:35 8.8 °F /  -12.9 °C -0.2 °F /  -17.9 °C 30.23in /  1023.6hPa North 2.0mph /  3.2km/h 14.0mph /  22.5km/h 66% 0.00in /  0mm
09:40 9.3 °F /  -12.6 °C -0.8 °F /  -18.2 °C 30.23in /  1023.6hPa NNW 5.0mph /  8km/h 12.0mph /  19.3km/h 63% 0.00in /  0mm
09:44 9.1 °F /  -12.7 °C -0.9 °F /  -18.3 °C 30.23in /  1023.6hPa NNW 4.0mph /  6.4km/h 12.0mph /  19.3km/h 63% 0.00in /  0mm
09:50 8.5 °F /  -13.1 °C -1.5 °F /  -18.6 °C 30.23in /  1023.6hPa NW 6.0mph /  9.7km/h 12.0mph /  19.3km/h 63% 0.00in /  0mm
09:55 8.5 °F /  -13.1 °C -1.2 °F /  -18.4 °C 30.22in /  1023.2hPa NNW 4.0mph /  6.4km/h 12.0mph /  19.3km/h 64% 0.00in /  0mm
09:59 9.2 °F /  -12.7 °C -0.9 °F /  -18.3 °C 30.22in /  1023.2hPa NNW 4.0mph /  6.4km/h 13.0mph /  20.9km/h 63% 0.00in /  0mm
10:05 9.8 °F /  -12.3 °C -1.0 °F /  -18.3 °C 30.22in /  1023.2hPa NNW 6.0mph /  9.7km/h 13.0mph /  20.9km/h 61% 0.00in /  0mm
10:09 9.7 °F /  -12.4 °C -0.7 °F /  -18.2 °C 30.21in /  1022.9hPa NW 4.0mph /  6.4km/h 13.0mph /  20.9km/h 62% 0.00in /  0mm
10:15 10.0 °F /  -12.2 °C -0.4 °F /  -18 °C 30.22in /  1023.2hPa North 3.0mph /  4.8km/h 13.0mph /  20.9km/h 62% 0.00in /  0mm
10:20 10.7 °F /  -11.8 °C -0.1 °F /  -17.8 °C 30.22in /  1023.2hPa North 4.0mph /  6.4km/h 11.0mph /  17.7km/h 61% 0.00in /  0mm
10:25 10.3 °F /  -12.1 °C -1.2 °F /  -18.4 °C 30.22in /  1023.2hPa NW 8.0mph /  12.9km/h 13.0mph /  20.9km/h 59% 0.00in /  0mm
10:30 10.0 °F /  -12.2 °C -0.8 °F /  -18.2 °C 30.22in /  1023.2hPa North 2.0mph /  3.2km/h 13.0mph /  20.9km/h 61% 0.00in /  0mm
10:35 10.8 °F /  -11.8 °C 0.0 °F /  -17.8 °C 30.22in /  1023.2hPa NNW 3.0mph /  4.8km/h 12.0mph /  19.3km/h 61% 0.00in /  0mm
10:40 10.9 °F /  -11.7 °C 0.1 °F /  -17.7 °C 30.22in /  1023.2hPa North 1.0mph /  1.6km/h 10.0mph /  16.1km/h 61% 0.00in /  0mm
10:44 11.7 °F /  -11.3 °C 0.8 °F /  -17.3 °C 30.22in /  1023.2hPa North 2.0mph /  3.2km/h 10.0mph /  16.1km/h 61% 0.00in /  0mm
10:50 11.4 °F /  -11.4 °C -0.2 °F /  -17.9 °C 30.22in /  1023.2hPa NW 5.0mph /  8km/h 14.0mph /  22.5km/h 59% 0.00in /  0mm
10:55 11.7 °F /  -11.3 °C 0.8 °F /  -17.3 °C 30.22in /  1023.2hPa North 2.0mph /  3.2km/h 14.0mph /  22.5km/h 61% 0.00in /  0mm
11:00 12.2 °F /  -11 °C 0.2 °F /  -17.7 °C 30.22in /  1023.2hPa NNE 4.0mph /  6.4km/h 9.0mph /  14.5km/h 58% 0.00in /  0mm
11:05 12.4 °F /  -10.9 °C 0.4 °F /  -17.6 °C 30.22in /  1023.2hPa NW 5.0mph /  8km/h 9.0mph /  14.5km/h 58% 0.00in /  0mm
11:09 12.5 °F /  -10.8 °C 0.5 °F /  -17.5 °C 30.21in /  1022.9hPa North 2.0mph /  3.2km/h 8.0mph /  12.9km/h 58% 0.00in /  0mm
11:15 13.2 °F /  -10.4 °C 0.8 °F /  -17.3 °C 30.21in /  1022.9hPa NNE 1.0mph /  1.6km/h 5.0mph /  8km/h 57% 0.00in /  0mm
11:19 13.7 °F /  -10.2 °C 0.5 °F /  -17.5 °C 30.21in /  1022.9hPa NNE 2.0mph /  3.2km/h 6.0mph /  9.7km/h 55% 0.00in /  0mm
11:25 12.8 °F /  -10.7 °C 0.1 °F /  -17.7 °C 30.21in /  1022.9hPa NNW 3.0mph /  4.8km/h 8.0mph /  12.9km/h 56% 0.00in /  0mm
11:30 13.1 °F /  -10.5 °C 0.7 °F /  -17.4 °C 30.20in /  1022.6hPa NNW 4.0mph /  6.4km/h 8.0mph /  12.9km/h 57% 0.00in /  0mm
11:35 13.5 °F /  -10.3 °C 1.1 °F /  -17.2 °C 30.20in /  1022.6hPa North 3.0mph /  4.8km/h 10.0mph /  16.1km/h 57% 0.00in /  0mm
11:40 13.8 °F /  -10.1 °C 0.6 °F /  -17.4 °C 30.20in /  1022.6hPa NW 3.0mph /  4.8km/h 10.0mph /  16.1km/h 55% 0.00in /  0mm
11:44 12.9 °F /  -10.6 °C 0.1 °F /  -17.7 °C 30.20in /  1022.6hPa WNW 4.0mph /  6.4km/h 7.0mph /  11.3km/h 56% 0.00in /  0mm
11:50 12.7 °F /  -10.7 °C 0.7 °F /  -17.4 °C 30.21in /  1022.9hPa NW 6.0mph /  9.7km/h 11.0mph /  17.7km/h 58% 0.00in /  0mm
11:55 12.7 °F /  -10.7 °C 0.3 °F /  -17.6 °C 30.20in /  1022.6hPa WNW 4.0mph /  6.4km/h 11.0mph /  17.7km/h 57% 0.00in /  0mm
12:00 13.4 °F /  -10.3 °C 1.7 °F /  -16.8 °C 30.20in /  1022.6hPa NNW 1.0mph /  1.6km/h 8.0mph /  12.9km/h 59% 0.00in /  0mm
12:05 14.1 °F /  -9.9 °C 1.3 °F /  -17.1 °C 30.20in /  1022.6hPa NNW 2.0mph /  3.2km/h 9.0mph /  14.5km/h 56% 0.00in /  0mm
12:09 14.1 °F /  -9.9 °C 1.3 °F /  -17.1 °C 30.21in /  1022.9hPa NW 2.0mph /  3.2km/h 9.0mph /  14.5km/h 56% 0.00in /  0mm
12:15 13.7 °F /  -10.2 °C 0.9 °F /  -17.3 °C 30.22in /  1023.2hPa NW 4.0mph /  6.4km/h 12.0mph /  19.3km/h 56% 0.00in /  0mm
12:20 14.3 °F /  -9.8 °C 1.8 °F /  -16.8 °C 30.23in /  1023.6hPa North 2.0mph /  3.2km/h 12.0mph /  19.3km/h 57% 0.00in /  0mm
12:25 14.8 °F /  -9.6 °C 1.9 °F /  -16.7 °C 30.23in /  1023.6hPa North 3.0mph /  4.8km/h 10.0mph /  16.1km/h 56% 0.00in /  0mm
12:30 15.6 °F /  -9.1 °C 2.7 °F /  -16.3 °C 30.23in /  1023.6hPa North 2.0mph /  3.2km/h 10.0mph /  16.1km/h 56% 0.00in /  0mm
12:35 15.8 °F /  -9 °C 2.1 °F /  -16.6 °C 30.23in /  1023.6hPa North 4.0mph /  6.4km/h 8.0mph /  12.9km/h 54% 0.00in /  0mm
12:40 15.9 °F /  -8.9 °C 2.2 °F /  -16.6 °C 30.24in /  1023.9hPa North 4.0mph /  6.4km/h 8.0mph /  12.9km/h 54% 0.00in /  0mm
12:45 15.7 °F /  -9.1 °C 2.0 °F /  -16.7 °C 30.23in /  1023.6hPa NW 4.0mph /  6.4km/h 9.0mph /  14.5km/h 54% 0.00in /  0mm
12:49 16.1 °F /  -8.8 °C 2.4 °F /  -16.4 °C 30.23in /  1023.6hPa NNW 3.0mph /  4.8km/h 9.0mph /  14.5km/h 54% 0.00in /  0mm
12:55 16.0 °F /  -8.9 °C 2.3 °F /  -16.5 °C 30.23in /  1023.6hPa NW 1.0mph /  1.6km/h 7.0mph /  11.3km/h 54% 0.00in /  0mm
12:59 16.1 °F /  -8.8 °C 2.4 °F /  -16.4 °C 30.22in /  1023.2hPa NNW 2.0mph /  3.2km/h 11.0mph /  17.7km/h 54% 0.00in /  0mm
13:05 16.2 °F /  -8.8 °C 2.5 °F /  -16.4 °C 30.21in /  1022.9hPa North 4.0mph /  6.4km/h 11.0mph /  17.7km/h 54% 0.00in /  0mm
13:09 16.3 °F /  -8.7 °C 2.2 °F /  -16.6 °C 30.20in /  1022.6hPa NNE 3.0mph /  4.8km/h 10.0mph /  16.1km/h 53% 0.00in /  0mm
13:15 16.8 °F /  -8.4 °C 3.0 °F /  -16.1 °C 30.20in /  1022.6hPa NNE 3.0mph /  4.8km/h 9.0mph /  14.5km/h 54% 0.00in /  0mm
13:20 17.1 °F /  -8.3 °C 3.3 °F /  -15.9 °C 30.20in /  1022.6hPa NW 3.0mph /  4.8km/h 7.0mph /  11.3km/h 54% 0.00in /  0mm
13:24 17.6 °F /  -8 °C 3.4 °F /  -15.9 °C 30.20in /  1022.6hPa NNE 2.0mph /  3.2km/h 10.0mph /  16.1km/h 53% 0.00in /  0mm
13:30 17.5 °F /  -8.1 °C 3.7 °F /  -15.7 °C 30.20in /  1022.6hPa NNE 2.0mph /  3.2km/h 10.0mph /  16.1km/h 54% 0.00in /  0mm
13:39 17.2 °F /  -8.2 °C 3.4 °F /  -15.9 °C 30.20in /  1022.6hPa North 3.0mph /  4.8km/h 8.0mph /  12.9km/h 54% 0.00in /  0mm
13:45 17.2 °F /  -8.2 °C 3.0 °F /  -16.1 °C 30.19in /  1022.2hPa North 3.0mph /  4.8km/h 11.0mph /  17.7km/h 53% 0.00in /  0mm
13:50 16.5 °F /  -8.6 °C 2.3 °F /  -16.5 °C 30.19in /  1022.2hPa NW 4.0mph /  6.4km/h 11.0mph /  17.7km/h 53% 0.00in /  0mm
13:55 16.7 °F /  -8.5 °C 2.9 °F /  -16.2 °C 30.19in /  1022.2hPa NNW 5.0mph /  8km/h 11.0mph /  17.7km/h 54% 0.00in /  0mm
14:05 17.8 °F /  -7.9 °C 3.6 °F /  -15.8 °C 30.18in /  1021.9hPa NNE 2.0mph /  3.2km/h 8.0mph /  12.9km/h 53% 0.00in /  0mm
14:10 18.0 °F /  -7.8 °C 4.1 °F /  -15.5 °C 30.17in /  1021.6hPa North 2.0mph /  3.2km/h 9.0mph /  14.5km/h 54% 0.00in /  0mm
14:14 18.4 °F /  -7.6 °C 3.7 °F /  -15.7 °C 30.17in /  1021.6hPa NNW 3.0mph /  4.8km/h 9.0mph /  14.5km/h 52% 0.00in /  0mm
14:20 18.2 °F /  -7.7 °C 4.3 °F /  -15.4 °C 30.17in /  1021.6hPa NNE 4.0mph /  6.4km/h 11.0mph /  17.7km/h 54% 0.00in /  0mm
14:24 18.2 °F /  -7.7 °C 4.3 °F /  -15.4 °C 30.17in /  1021.6hPa North 1.0mph /  1.6km/h 11.0mph /  17.7km/h 54% 0.00in /  0mm
14:30 18.3 °F /  -7.6 °C 4.0 °F /  -15.6 °C 30.17in /  1021.6hPa North 3.0mph /  4.8km/h 9.0mph /  14.5km/h 53% 0.00in /  0mm
14:35 18.3 °F /  -7.6 °C 3.6 °F /  -15.8 °C 30.17in /  1021.6hPa North 4.0mph /  6.4km/h 9.0mph /  14.5km/h 52% 0.00in /  0mm
14:39 17.9 °F /  -7.8 °C 3.6 °F /  -15.8 °C 30.17in /  1021.6hPa North 2.0mph /  3.2km/h 8.0mph /  12.9km/h 53% 0.00in /  0mm
14:45 18.2 °F /  -7.7 °C 4.3 °F /  -15.4 °C 30.17in /  1021.6hPa North 1.0mph /  1.6km/h 8.0mph /  12.9km/h 54% 0.00in /  0mm
14:49 18.6 °F /  -7.4 °C 4.3 °F /  -15.4 °C 30.17in /  1021.6hPa North 2.0mph /  3.2km/h 6.0mph /  9.7km/h 53% 0.00in /  0mm
14:55 18.8 °F /  -7.3 °C 4.5 °F /  -15.3 °C 30.17in /  1021.6hPa NNW 3.0mph /  4.8km/h 7.0mph /  11.3km/h 53% 0.00in /  0mm
15:00 19.0 °F /  -7.2 °C 4.7 °F /  -15.2 °C 30.17in /  1021.6hPa Calm   7.0mph /  11.3km/h 53% 0.00in /  0mm
15:04 19.2 °F /  -7.1 °C 4.4 °F /  -15.3 °C 30.16in /  1021.2hPa NNE 1.0mph /  1.6km/h 8.0mph /  12.9km/h 52% 0.00in /  0mm
15:10 18.9 °F /  -7.3 °C 4.2 °F /  -15.4 °C 30.16in /  1021.2hPa NNW 3.0mph /  4.8km/h 8.0mph /  12.9km/h 52% 0.00in /  0mm
15:14 18.2 °F /  -7.7 °C 3.9 °F /  -15.6 °C 30.15in /  1020.9hPa Calm   7.0mph /  11.3km/h 53% 0.00in /  0mm
15:20 18.1 °F /  -7.7 °C 3.8 °F /  -15.7 °C 30.15in /  1020.9hPa NNE 4.0mph /  6.4km/h 7.0mph /  11.3km/h 53% 0.00in /  0mm
15:24 18.3 °F /  -7.6 °C 4.4 °F /  -15.3 °C 30.15in /  1020.9hPa NE 1.0mph /  1.6km/h 7.0mph /  11.3km/h 54% 0.00in /  0mm
15:30 18.1 °F /  -7.7 °C 3.4 °F /  -15.9 °C 30.15in /  1020.9hPa North 1.0mph /  1.6km/h 7.0mph /  11.3km/h 52% 0.00in /  0mm
15:35 17.7 °F /  -7.9 °C 3.5 °F /  -15.8 °C 30.15in /  1020.9hPa ENE 2.0mph /  3.2km/h 8.0mph /  12.9km/h 53% 0.00in /  0mm
15:40 17.7 °F /  -7.9 °C 3.9 °F /  -15.6 °C 30.14in /  1020.5hPa Calm   8.0mph /  12.9km/h 54% 0.00in /  0mm
15:44 17.6 °F /  -8 °C 3.8 °F /  -15.7 °C 30.14in /  1020.5hPa NE 2.0mph /  3.2km/h 5.0mph /  8km/h 54% 0.00in /  0mm
15:49 17.4 °F /  -8.1 °C 3.6 °F /  -15.8 °C 30.13in /  1020.2hPa NNE 3.0mph /  4.8km/h 7.0mph /  11.3km/h 54% 0.00in /  0mm
15:55 17.3 °F /  -8.2 °C 3.9 °F /  -15.6 °C 30.13in /  1020.2hPa NNE 1.0mph /  1.6km/h 7.0mph /  11.3km/h 55% 0.00in /  0mm
15:59 17.2 °F /  -8.2 °C 3.4 °F /  -15.9 °C 30.13in /  1020.2hPa NE 2.0mph /  3.2km/h 5.0mph /  8km/h 54% 0.00in /  0mm
16:05 16.9 °F /  -8.4 °C 3.5 °F /  -15.8 °C 30.12in /  1019.9hPa Calm   5.0mph /  8km/h 55% 0.00in /  0mm
16:09 16.6 °F /  -8.6 °C 3.2 °F /  -16 °C 30.11in /  1019.5hPa East 1.0mph /  1.6km/h 4.0mph /  6.4km/h 55% 0.00in /  0mm
16:15 16.3 °F /  -8.7 °C 3.3 °F /  -15.9 °C 30.11in /  1019.5hPa Calm   3.0mph /  4.8km/h 56% 0.00in /  0mm
16:19 16.3 °F /  -8.7 °C 3.3 °F /  -15.9 °C 30.11in /  1019.5hPa SE 1.0mph /  1.6km/h 3.0mph /  4.8km/h 56% 0.00in /  0mm
16:25 16.3 °F /  -8.7 °C 3.7 °F /  -15.7 °C 30.11in /  1019.5hPa NNE 1.0mph /  1.6km/h 3.0mph /  4.8km/h 57% 0.00in /  0mm
16:30 16.3 °F /  -8.7 °C 3.7 °F /  -15.7 °C 30.10in /  1019.2hPa Calm   3.0mph /  4.8km/h 57% 0.00in /  0mm
16:35 16.1 °F /  -8.8 °C 3.2 °F /  -16 °C 30.09in /  1018.8hPa East 2.0mph /  3.2km/h 5.0mph /  8km/h 56% 0.00in /  0mm
16:40 16.1 °F /  -8.8 °C 3.5 °F /  -15.8 °C 30.09in /  1018.8hPa Calm   5.0mph /  8km/h 57% 0.00in /  0mm
16:44 16.1 °F /  -8.8 °C 3.5 °F /  -15.8 °C 30.09in /  1018.8hPa Calm   4.0mph /  6.4km/h 57% 0.00in /  0mm
16:50 16.0 °F /  -8.9 °C 3.4 °F /  -15.9 °C 30.09in /  1018.8hPa Calm   3.0mph /  4.8km/h 57% 0.00in /  0mm
16:55 16.1 °F /  -8.8 °C 3.5 °F /  -15.8 °C 30.08in /  1018.5hPa NE 1.0mph /  1.6km/h 4.0mph /  6.4km/h 57% 0.00in /  0mm
17:00 16.0 °F /  -8.9 °C 3.4 °F /  -15.9 °C 30.08in /  1018.5hPa Calm   4.0mph /  6.4km/h 57% 0.00in /  0mm
17:04 15.9 °F /  -8.9 °C 3.7 °F /  -15.7 °C 30.08in /  1018.5hPa Calm   5.0mph /  8km/h 58% 0.00in /  0mm
17:10 15.7 °F /  -9.1 °C 3.5 °F /  -15.8 °C 30.09in /  1018.8hPa Calm   5.0mph /  8km/h 58% 0.00in /  0mm
17:14 15.5 °F /  -9.2 °C 3.3 °F /  -15.9 °C 30.09in /  1018.8hPa NNE 1.0mph /  1.6km/h 2.0mph /  3.2km/h 58% 0.00in /  0mm
17:20 15.4 °F /  -9.2 °C 3.6 °F /  -15.8 °C 30.09in /  1018.8hPa Calm   3.0mph /  4.8km/h 59% 0.00in /  0mm
17:24 15.2 °F /  -9.3 °C 3.4 °F /  -15.9 °C 30.09in /  1018.8hPa Calm   3.0mph /  4.8km/h 59% 0.00in /  0mm
17:30 15.1 °F /  -9.4 °C 3.3 °F /  -15.9 °C 30.09in /  1018.8hPa Calm     59% 0.00in /  0mm
17:35 14.9 °F /  -9.5 °C 3.5 °F /  -15.8 °C 30.10in /  1019.2hPa Calm     60% 0.00in /  0mm
17:40 14.7 °F /  -9.6 °C 3.3 °F /  -15.9 °C 30.10in /  1019.2hPa Calm     60% 0.00in /  0mm
17:44 14.5 °F /  -9.7 °C 3.5 °F /  -15.8 °C 30.10in /  1019.2hPa Calm     61% 0.00in /  0mm
17:49 14.3 °F /  -9.8 °C 3.3 °F /  -15.9 °C 30.10in /  1019.2hPa Calm     61% 0.00in /  0mm
17:55 14.1 °F /  -9.9 °C 3.5 °F /  -15.8 °C 30.10in /  1019.2hPa Calm     62% 0.00in /  0mm
17:59 14.0 °F /  -10 °C 3.4 °F /  -15.9 °C 30.10in /  1019.2hPa Calm     62% 0.00in /  0mm
18:05 13.9 °F /  -10.1 °C 3.6 °F /  -15.8 °C 30.10in /  1019.2hPa Calm     63% 0.00in /  0mm
18:09 13.9 °F /  -10.1 °C 3.6 °F /  -15.8 °C 30.10in /  1019.2hPa Calm     63% 0.00in /  0mm
18:15 14.0 °F /  -10 °C 3.7 °F /  -15.7 °C 30.10in /  1019.2hPa Calm     63% 0.00in /  0mm
18:19 13.9 °F /  -10.1 °C 3.6 °F /  -15.8 °C 30.11in /  1019.5hPa Calm   1.0mph /  1.6km/h 63% 0.00in /  0mm
18:24 13.9 °F /  -10.1 °C 3.6 °F /  -15.8 °C 30.11in /  1019.5hPa Calm   1.0mph /  1.6km/h 63% 0.00in /  0mm
18:30 13.8 °F /  -10.1 °C 3.5 °F /  -15.8 °C 30.11in /  1019.5hPa Calm   2.0mph /  3.2km/h 63% 0.00in /  0mm
18:35 13.6 °F /  -10.2 °C 3.3 °F /  -15.9 °C 30.11in /  1019.5hPa Calm   2.0mph /  3.2km/h 63% 0.00in /  0mm
18:40 13.5 °F /  -10.3 °C 3.2 °F /  -16 °C 30.11in /  1019.5hPa Calm     63% 0.00in /  0mm
18:44 13.5 °F /  -10.3 °C 3.2 °F /  -16 °C 30.11in /  1019.5hPa Calm     63% 0.00in /  0mm
18:49 13.5 °F /  -10.3 °C 3.6 °F /  -15.8 °C 30.11in /  1019.5hPa Calm   1.0mph /  1.6km/h 64% 0.00in /  0mm
18:55 13.5 °F /  -10.3 °C 3.2 °F /  -16 °C 30.10in /  1019.2hPa Calm   1.0mph /  1.6km/h 63% 0.00in /  0mm
18:59 13.5 °F /  -10.3 °C 3.2 °F /  -16 °C 30.10in /  1019.2hPa Calm   2.0mph /  3.2km/h 63% 0.00in /  0mm
19:05 13.6 °F /  -10.2 °C 3.3 °F /  -15.9 °C 30.10in /  1019.2hPa Calm   2.0mph /  3.2km/h 63% 0.00in /  0mm
19:09 13.5 °F /  -10.3 °C 3.6 °F /  -15.8 °C 30.09in /  1018.8hPa Calm   2.0mph /  3.2km/h 64% 0.00in /  0mm
19:15 13.5 °F /  -10.3 °C 3.6 °F /  -15.8 °C 30.09in /  1018.8hPa Calm   1.0mph /  1.6km/h 64% 0.00in /  0mm
19:19 13.4 °F /  -10.3 °C 3.5 °F /  -15.8 °C 30.09in /  1018.8hPa Calm     64% 0.00in /  0mm
19:25 13.2 °F /  -10.4 °C 3.3 °F /  -15.9 °C 30.09in /  1018.8hPa Calm     64% 0.00in /  0mm
19:30 13.0 °F /  -10.6 °C 3.4 °F /  -15.9 °C 30.09in /  1018.8hPa Calm     65% 0.00in /  0mm
19:35 12.8 °F /  -10.7 °C 3.3 °F /  -15.9 °C 30.09in /  1018.8hPa Calm     65% 0.00in /  0mm
19:44 12.5 °F /  -10.8 °C 3.0 °F /  -16.1 °C 30.09in /  1018.8hPa Calm   2.0mph /  3.2km/h 65% 0.00in /  0mm
19:49 12.3 °F /  -10.9 °C 3.1 °F /  -16.1 °C 30.09in /  1018.8hPa Calm     66% 0.00in /  0mm
19:55 11.9 °F /  -11.2 °C 2.7 °F /  -16.3 °C 30.09in /  1018.8hPa Calm     66% 0.00in /  0mm
19:59 11.6 °F /  -11.3 °C 2.8 °F /  -16.2 °C 30.09in /  1018.8hPa Calm     67% 0.00in /  0mm
20:05 11.4 °F /  -11.4 °C 2.6 °F /  -16.3 °C 30.10in /  1019.2hPa Calm     67% 0.00in /  0mm
20:09 11.2 °F /  -11.6 °C 2.7 °F /  -16.3 °C 30.10in /  1019.2hPa Calm     68% 0.00in /  0mm
20:15 11.2 °F /  -11.6 °C 2.7 °F /  -16.3 °C 30.10in /  1019.2hPa Calm     68% 0.00in /  0mm
20:19 11.2 °F /  -11.6 °C 2.7 °F /  -16.3 °C 30.09in /  1018.8hPa Calm     68% 0.00in /  0mm
20:24 11.1 °F /  -11.6 °C 2.9 °F /  -16.2 °C 30.09in /  1018.8hPa Calm     69% 0.00in /  0mm
20:30 11.0 °F /  -11.7 °C 2.8 °F /  -16.2 °C 30.09in /  1018.8hPa Calm     69% 0.00in /  0mm
20:35 10.8 °F /  -11.8 °C 2.3 °F /  -16.5 °C 30.09in /  1018.8hPa Calm     68% 0.00in /  0mm
20:39 10.4 °F /  -12 °C 2.2 °F /  -16.6 °C 30.09in /  1018.8hPa Calm     69% 0.00in /  0mm
20:44 9.9 °F /  -12.3 °C 1.8 °F /  -16.8 °C 30.09in /  1018.8hPa Calm     69% 0.00in /  0mm
20:49 9.9 °F /  -12.3 °C 2.1 °F /  -16.6 °C 30.09in /  1018.8hPa Calm     70% 0.00in /  0mm
20:55 9.5 °F /  -12.5 °C 2.0 °F /  -16.7 °C 30.08in /  1018.5hPa Calm     71% 0.00in /  0mm
20:59 9.4 °F /  -12.6 °C 1.9 °F /  -16.7 °C 30.08in /  1018.5hPa Calm     71% 0.00in /  0mm
21:04 9.3 °F /  -12.6 °C 2.1 °F /  -16.6 °C 30.08in /  1018.5hPa Calm     72% 0.00in /  0mm
21:09 9.3 °F /  -12.6 °C 2.1 °F /  -16.6 °C 30.08in /  1018.5hPa Calm     72% 0.00in /  0mm
21:15 9.4 °F /  -12.6 °C 2.2 °F /  -16.6 °C 30.08in /  1018.5hPa Calm   2.0mph /  3.2km/h 72% 0.00in /  0mm
21:19 9.7 °F /  -12.4 °C 2.5 °F /  -16.4 °C 30.08in /  1018.5hPa Calm   2.0mph /  3.2km/h 72% 0.00in /  0mm
21:24 9.9 °F /  -12.3 °C 2.7 °F /  -16.3 °C 30.07in /  1018.2hPa Calm   2.0mph /  3.2km/h 72% 0.00in /  0mm
21:29 10.4 °F /  -12 °C 2.9 °F /  -16.2 °C 30.07in /  1018.2hPa Calm   3.0mph /  4.8km/h 71% 0.00in /  0mm
21:35 10.9 °F /  -11.7 °C 3.0 °F /  -16.1 °C 30.06in /  1017.8hPa Calm   3.0mph /  4.8km/h 70% 0.00in /  0mm
21:39 11.1 °F /  -11.6 °C 3.2 °F /  -16 °C 30.07in /  1018.2hPa Calm   2.0mph /  3.2km/h 70% 0.00in /  0mm
21:44 11.3 °F /  -11.5 °C 5.2 °F /  -14.9 °C 30.06in /  1017.8hPa NNE 1.0mph /  1.6km/h 3.0mph /  4.8km/h 76% 0.00in /  0mm
21:49 11.4 °F /  -11.4 °C 3.2 °F /  -16 °C 30.06in /  1017.8hPa Calm   3.0mph /  4.8km/h 69% 0.00in /  0mm
21:55 11.5 °F /  -11.4 °C 3.3 °F /  -15.9 °C 30.06in /  1017.8hPa Calm   3.0mph /  4.8km/h 69% 0.00in /  0mm
21:59 11.4 °F /  -11.4 °C 3.2 °F /  -16 °C 30.06in /  1017.8hPa Calm   3.0mph /  4.8km/h 69% 0.00in /  0mm
22:04 11.4 °F /  -11.4 °C 3.2 °F /  -16 °C 30.07in /  1018.2hPa Calm   2.0mph /  3.2km/h 69% 0.00in /  0mm
22:09 11.4 °F /  -11.4 °C 3.2 °F /  -16 °C 30.07in /  1018.2hPa Calm   2.0mph /  3.2km/h 69% 0.00in /  0mm
22:14 11.4 °F /  -11.4 °C 3.2 °F /  -16 °C 30.07in /  1018.2hPa Calm   1.0mph /  1.6km/h 69% 0.00in /  0mm
22:19 11.5 °F /  -11.4 °C 3.3 °F /  -15.9 °C 30.07in /  1018.2hPa Calm   1.0mph /  1.6km/h 69% 0.00in /  0mm
22:25 11.5 °F /  -11.4 °C 3.3 °F /  -15.9 °C 30.06in /  1017.8hPa Calm   1.0mph /  1.6km/h 69% 0.00in /  0mm
22:30 11.6 °F /  -11.3 °C 3.4 °F /  -15.9 °C 30.06in /  1017.8hPa Calm   1.0mph /  1.6km/h 69% 0.00in /  0mm
22:35 11.6 °F /  -11.3 °C 3.4 °F /  -15.9 °C 30.06in /  1017.8hPa Calm   2.0mph /  3.2km/h 69% 0.00in /  0mm
22:39 11.6 °F /  -11.3 °C 3.4 °F /  -15.9 °C 30.06in /  1017.8hPa Calm   2.0mph /  3.2km/h 69% 0.00in /  0mm
22:44 11.7 °F /  -11.3 °C 3.5 °F /  -15.8 °C 30.06in /  1017.8hPa Calm   2.0mph /  3.2km/h 69% 0.00in /  0mm
22:49 11.7 °F /  -11.3 °C 3.5 °F /  -15.8 °C 30.05in /  1017.5hPa Calm   3.0mph /  4.8km/h 69% 0.00in /  0mm
22:55 11.8 °F /  -11.2 °C 3.6 °F /  -15.8 °C 30.05in /  1017.5hPa NE 1.0mph /  1.6km/h 3.0mph /  4.8km/h 69% 0.00in /  0mm
22:59 11.8 °F /  -11.2 °C 3.9 °F /  -15.6 °C 30.05in /  1017.5hPa Calm   3.0mph /  4.8km/h 70% 0.00in /  0mm
23:05 11.8 °F /  -11.2 °C 3.9 °F /  -15.6 °C 30.05in /  1017.5hPa Calm   3.0mph /  4.8km/h 70% 0.00in /  0mm
23:09 11.8 °F /  -11.2 °C 3.9 °F /  -15.6 °C 30.05in /  1017.5hPa Calm   2.0mph /  3.2km/h 70% 0.00in /  0mm
23:14 11.7 °F /  -11.3 °C 4.1 °F /  -15.5 °C 30.05in /  1017.5hPa NE 1.0mph /  1.6km/h 2.0mph /  3.2km/h 71% 0.00in /  0mm
23:19 11.6 °F /  -11.3 °C 4.3 °F /  -15.4 °C 30.05in /  1017.5hPa Calm   2.0mph /  3.2km/h 72% 0.00in /  0mm
23:25 11.4 °F /  -11.4 °C 4.4 °F /  -15.3 °C 30.05in /  1017.5hPa Calm   2.0mph /  3.2km/h 73% 0.00in /  0mm
23:30 11.4 °F /  -11.4 °C 4.7 °F /  -15.2 °C 30.05in /  1017.5hPa Calm   2.0mph /  3.2km/h 74% 0.00in /  0mm
23:35 11.4 °F /  -11.4 °C 5.0 °F /  -15 °C 30.05in /  1017.5hPa Calm   1.0mph /  1.6km/h 75% 0.00in /  0mm
23:39 11.3 °F /  -11.5 °C 4.9 °F /  -15.1 °C 30.05in /  1017.5hPa Calm   1.0mph /  1.6km/h 75% 0.00in /  0mm
23:44 11.3 °F /  -11.5 °C 5.2 °F /  -14.9 °C 30.05in /  1017.5hPa Calm     76% 0.00in /  0mm
23:49 11.3 °F /  -11.5 °C 5.5 °F /  -14.7 °C 30.05in /  1017.5hPa Calm     77% 0.00in /  0mm
23:55 11.2 °F /  -11.6 °C 5.4 °F /  -14.8 °C 30.04in /  1017.2hPa Calm     77% 0.00in /  0mm
23:59 11.2 °F /  -11.6 °C 5.7 °F /  -14.6 °C 30.04in /  1017.2hPa Calm   1.0mph /  1.6km/h 78% 0.00in /  0mm
Westford Weather
Compliments of Weather Underground

 
 
Current Radar Loop:

Copyright © WestfordWeather.net 2007-2014. All rights reserved.